Time,TemperatureF,DewpointF,PressureIn,WindDirection,WindDirectionDegrees,WindSpeedMPH,WindSpeedGustMPH,Humidity,HourlyPrecipIn,Conditions,Clouds,dailyrainin,SoftwareType,DateUTC
2013-01-12 00:02:00,54.0,48.0,29.83,NE,45,0.0,1.0,81,0.00,,,0.08,,2013-01-11 22:02:00,
2013-01-12 00:12:00,53.0,48.0,29.83,SSE,152,0.0,2.0,83,0.00,,,0.08,,2013-01-11 22:12:00,
2013-01-12 00:22:00,53.0,48.0,29.83,SSE,152,0.0,2.0,83,0.00,,,0.08,,2013-01-11 22:22:00,
2013-01-12 00:33:00,54.0,48.0,29.83,NE,45,0.0,0.0,81,0.00,,,0.08,,2013-01-11 22:33:00,
2013-01-12 00:42:00,54.0,48.0,29.83,NE,45,0.0,0.0,81,0.00,,,0.08,,2013-01-11 22:42:00,
2013-01-12 00:52:00,54.0,48.0,29.82,NE,45,0.0,1.0,81,0.00,,,0.08,,2013-01-11 22:52:00,
2013-01-12 01:02:00,54.0,48.0,29.81,WNW,283,0.0,2.0,81,0.00,,,0.08,,2013-01-11 23:02:00,
2013-01-12 01:12:00,54.0,48.0,29.81,WNW,283,0.0,2.0,81,0.00,,,0.08,,2013-01-11 23:12:00,
2013-01-12 01:22:00,54.0,49.0,29.81,North,353,0.0,2.0,82,0.00,,,0.08,,2013-01-11 23:22:00,
2013-01-12 01:32:00,54.0,49.0,29.81,ENE,61,0.0,1.0,82,0.00,,,0.08,,2013-01-11 23:32:00,
2013-01-12 01:42:00,54.0,49.0,29.81,ENE,61,0.0,1.0,82,0.00,,,0.08,,2013-01-11 23:42:00,
2013-01-12 01:53:00,53.0,48.0,29.80,NE,45,0.0,1.0,84,0.00,,,0.08,,2013-01-11 23:53:00,
2013-01-12 02:02:00,52.0,48.0,29.80,NNE,33,2.0,3.0,85,0.00,,,0.08,,2013-01-12 00:02:00,
2013-01-12 02:12:00,52.0,48.0,29.80,East,95,1.0,3.0,85,0.00,,,0.08,,2013-01-12 00:12:00,
2013-01-12 02:22:00,52.0,48.0,29.80,East,95,1.0,3.0,85,0.00,,,0.08,,2013-01-12 00:22:00,
2013-01-12 02:32:00,52.0,48.0,29.80,NE,46,0.0,2.0,85,0.00,,,0.08,,2013-01-12 00:32:00,
2013-01-12 02:42:00,52.0,48.0,29.80,NE,46,0.0,2.0,85,0.00,,,0.08,,2013-01-12 00:42:00,
2013-01-12 02:52:00,52.0,48.0,29.80,ENE,59,1.0,2.0,85,0.00,,,0.08,,2013-01-12 00:52:00,
2013-01-12 03:02:00,52.0,48.0,29.80,ENE,78,0.0,2.0,85,0.00,,,0.08,,2013-01-12 01:02:00,
2013-01-12 03:12:00,52.0,48.0,29.80,ENE,78,0.0,2.0,85,0.00,,,0.08,,2013-01-12 01:12:00,
2013-01-12 03:22:00,52.0,48.0,29.80,NE,56,0.0,1.0,87,0.00,,,0.08,,2013-01-12 01:22:00,
2013-01-12 03:32:00,51.0,47.0,29.80,North,0,0.0,0.0,87,0.00,,,0.08,,2013-01-12 01:32:00,
2013-01-12 03:42:00,51.0,47.0,29.80,North,0,0.0,0.0,87,0.00,,,0.08,,2013-01-12 01:42:00,
2013-01-12 03:52:00,51.0,47.0,29.80,East,90,0.0,0.0,87,0.00,,,0.08,,2013-01-12 01:52:00,
2013-01-12 04:02:00,51.0,48.0,29.79,NE,48,0.0,3.0,89,0.00,,,0.07,,2013-01-12 02:02:00,
2013-01-12 04:11:00,51.0,48.0,29.79,NE,48,0.0,3.0,89,0.00,,,0.07,,2013-01-12 02:11:00,
2013-01-12 04:22:00,51.0,48.0,29.79,NE,47,0.0,2.0,89,0.00,,,0.04,,2013-01-12 02:22:00,
2013-01-12 04:32:00,50.0,47.0,29.79,NE,50,1.0,2.0,89,0.00,,,0.01,,2013-01-12 02:32:00,
2013-01-12 04:42:00,50.0,47.0,29.79,NE,50,1.0,2.0,89,0.00,,,0.01,,2013-01-12 02:42:00,
2013-01-12 04:52:00,50.0,47.0,29.78,NE,45,0.0,1.0,89,0.00,,,0.01,,2013-01-12 02:52:00,
2013-01-12 05:02:00,50.0,47.0,29.78,NE,45,0.0,1.0,90,0.00,,,0.00,,2013-01-12 03:02:00,
2013-01-12 05:11:00,50.0,47.0,29.78,NE,45,0.0,1.0,90,0.00,,,0.00,,2013-01-12 03:11:00,
2013-01-12 05:22:00,50.0,47.0,29.77,NE,46,0.0,1.0,91,0.00,,,0.00,,2013-01-12 03:22:00,
2013-01-12 05:32:00,50.0,47.0,29.77,East,83,0.0,1.0,91,0.00,,,0.00,,2013-01-12 03:32:00,
2013-01-12 05:42:00,50.0,47.0,29.77,East,83,0.0,1.0,91,0.00,,,0.00,,2013-01-12 03:42:00,
2013-01-12 05:52:00,49.0,46.0,29.77,NE,56,0.0,2.0,91,0.00,,,0.00,,2013-01-12 03:52:00,
2013-01-12 06:02:00,49.0,47.0,29.77,NE,46,0.0,1.0,92,0.00,,,0.00,,2013-01-12 04:02:00,
2013-01-12 06:11:00,49.0,47.0,29.77,NE,46,0.0,1.0,92,0.00,,,0.00,,2013-01-12 04:11:00,
2013-01-12 06:22:00,49.0,47.0,29.78,NE,45,0.0,1.0,92,0.00,,,0.00,,2013-01-12 04:22:00,
2013-01-12 06:32:00,49.0,47.0,29.78,NE,45,0.0,2.0,92,0.00,,,0.00,,2013-01-12 04:32:00,
2013-01-12 06:42:00,49.0,47.0,29.78,NE,45,0.0,2.0,92,0.00,,,0.00,,2013-01-12 04:42:00,
2013-01-12 06:52:00,49.0,47.0,29.78,NE,47,1.0,3.0,92,0.00,,,0.00,,2013-01-12 04:52:00,
2013-01-12 07:03:00,49.0,46.0,29.79,NE,45,1.0,1.0,91,0.00,,,0.00,,2013-01-12 05:03:00,
2013-01-12 07:12:00,49.0,46.0,29.79,NE,45,1.0,1.0,91,0.00,,,0.00,,2013-01-12 05:12:00,
2013-01-12 07:22:00,50.0,47.0,29.78,North,0,0.0,0.0,90,0.00,,,0.00,,2013-01-12 05:22:00,
2013-01-12 07:32:00,50.0,47.0,29.78,ENE,66,0.0,2.0,89,0.00,,,0.00,,2013-01-12 05:32:00,
2013-01-12 07:42:00,50.0,47.0,29.78,ENE,66,0.0,2.0,89,0.00,,,0.00,,2013-01-12 05:42:00,
2013-01-12 07:52:00,50.0,47.0,29.78,NE,53,0.0,3.0,89,0.00,,,0.00,,2013-01-12 05:52:00,
2013-01-12 08:02:00,50.0,47.0,29.78,North,0,0.0,0.0,90,0.00,,,0.00,,2013-01-12 06:02:00,
2013-01-12 08:12:00,50.0,47.0,29.78,North,0,0.0,0.0,90,0.00,,,0.00,,2013-01-12 06:12:00,
2013-01-12 08:22:00,49.0,46.0,29.79,NE,37,0.0,1.0,90,0.00,,,0.00,,2013-01-12 06:22:00,
2013-01-12 08:32:00,49.0,46.0,29.79,East,90,0.0,1.0,90,0.00,,,0.00,,2013-01-12 06:32:00,
2013-01-12 08:42:00,49.0,46.0,29.79,East,90,0.0,1.0,90,0.00,,,0.00,,2013-01-12 06:42:00,
2013-01-12 08:52:00,49.0,46.0,29.80,NNE,21,1.0,3.0,89,0.00,,,0.00,,2013-01-12 06:52:00,
2013-01-12 09:02:00,50.0,47.0,29.80,NNE,29,0.0,2.0,88,0.00,,,0.00,,2013-01-12 07:02:00,
2013-01-12 09:11:00,55.0,50.0,29.80,East,83,0.0,2.0,84,0.00,,,0.00,,2013-01-12 07:11:00,
2013-01-12 09:21:00,55.0,50.0,29.80,East,83,0.0,2.0,84,0.00,,,0.00,,2013-01-12 07:21:00,
2013-01-12 09:32:00,56.0,47.0,29.80,NE,38,1.0,3.0,73,0.00,,,0.00,,2013-01-12 07:32:00,
2013-01-12 09:42:00,56.0,47.0,29.80,NE,38,1.0,3.0,73,0.00,,,0.00,,2013-01-12 07:42:00,
2013-01-12 09:52:00,57.0,48.0,29.81,NE,46,0.0,1.0,73,0.00,,,0.00,,2013-01-12 07:52:00,
2013-01-12 10:02:00,56.0,48.0,29.81,NE,41,0.0,1.0,75,0.00,,,0.00,,2013-01-12 08:02:00,
2013-01-12 10:11:00,56.0,48.0,29.81,NE,41,0.0,1.0,75,0.00,,,0.00,,2013-01-12 08:11:00,
2013-01-12 10:22:00,63.0,51.0,29.82,NE,48,0.0,1.0,64,0.00,,,0.00,,2013-01-12 08:22:00,
2013-01-12 10:32:00,65.0,52.0,29.81,NE,47,0.0,2.0,63,0.00,,,0.00,,2013-01-12 08:32:00,
2013-01-12 10:42:00,65.0,52.0,29.81,NE,47,0.0,2.0,63,0.00,,,0.00,,2013-01-12 08:42:00,
2013-01-12 10:52:00,68.0,51.0,29.82,West,276,0.0,3.0,55,0.00,,,0.00,,2013-01-12 08:52:00,
2013-01-12 11:02:00,69.0,51.0,29.81,West,270,1.0,4.0,52,0.00,,,0.00,,2013-01-12 09:02:00,
2013-01-12 11:11:00,69.0,51.0,29.81,West,270,1.0,4.0,52,0.00,,,0.00,,2013-01-12 09:11:00,
2013-01-12 11:22:00,64.0,48.0,29.83,West,263,0.0,1.0,57,0.00,,,0.00,,2013-01-12 09:22:00,
2013-01-12 11:32:00,61.0,48.0,29.83,NE,42,0.0,1.0,63,0.00,,,0.00,,2013-01-12 09:32:00,
2013-01-12 11:42:00,61.0,48.0,29.83,NE,42,0.0,1.0,63,0.00,,,0.00,,2013-01-12 09:42:00,
2013-01-12 11:52:00,59.0,48.0,29.83,West,272,1.0,4.0,66,0.00,,,0.00,,2013-01-12 09:52:00,
2013-01-12 12:02:00,57.0,48.0,29.84,West,270,4.0,8.0,72,0.00,,,0.00,,2013-01-12 10:02:00,
2013-01-12 12:11:00,57.0,48.0,29.84,West,270,4.0,8.0,72,0.00,,,0.00,,2013-01-12 10:11:00,
2013-01-12 12:22:00,56.0,48.0,29.83,West,277,5.0,9.0,75,0.00,,,0.00,,2013-01-12 10:22:00,
2013-01-12 12:32:00,62.0,50.0,29.83,WSW,240,2.0,4.0,64,0.00,,,0.00,,2013-01-12 10:32:00,
2013-01-12 12:42:00,62.0,50.0,29.83,WSW,240,2.0,4.0,64,0.00,,,0.00,,2013-01-12 10:42:00,
2013-01-12 12:52:00,65.0,50.0,29.81,NE,43,2.0,4.0,58,0.00,,,0.00,,2013-01-12 10:52:00,
2013-01-12 13:02:00,64.0,50.0,29.81,WSW,242,2.0,4.0,61,0.00,,,0.00,,2013-01-12 11:02:00,
2013-01-12 13:11:00,65.0,51.0,29.81,West,275,2.0,3.0,60,0.00,,,0.00,,2013-01-12 11:11:00,
2013-01-12 13:22:00,65.0,51.0,29.81,West,275,2.0,3.0,60,0.00,,,0.00,,2013-01-12 11:22:00,
2013-01-12 13:32:00,62.0,49.0,29.80,WNW,283,3.0,4.0,62,0.00,,,0.00,,2013-01-12 11:32:00,
2013-01-12 13:42:00,62.0,49.0,29.80,WNW,283,3.0,4.0,62,0.00,,,0.00,,2013-01-12 11:42:00,
2013-01-12 13:52:00,64.0,50.0,29.80,WSW,248,2.0,6.0,61,0.00,,,0.00,,2013-01-12 11:52:00,
2013-01-12 14:02:00,63.0,49.0,29.80,West,271,3.0,6.0,60,0.00,,,0.00,,2013-01-12 12:02:00,
2013-01-12 14:11:00,63.0,49.0,29.80,West,271,3.0,6.0,60,0.00,,,0.00,,2013-01-12 12:11:00,
2013-01-12 14:22:00,63.0,49.0,29.80,West,263,4.0,5.0,61,0.00,,,0.00,,2013-01-12 12:22:00,
2013-01-12 14:32:00,64.0,49.0,29.80,West,262,2.0,4.0,59,0.00,,,0.00,,2013-01-12 12:32:00,
2013-01-12 14:42:00,64.0,49.0,29.80,West,262,2.0,4.0,59,0.00,,,0.00,,2013-01-12 12:42:00,
2013-01-12 14:52:00,64.0,50.0,29.81,WNW,295,3.0,6.0,60,0.00,,,0.00,,2013-01-12 12:52:00,
2013-01-12 15:02:00,66.0,50.0,29.81,West,266,3.0,5.0,56,0.00,,,0.00,,2013-01-12 13:02:00,
2013-01-12 15:11:00,66.0,50.0,29.81,West,266,3.0,5.0,56,0.00,,,0.00,,2013-01-12 13:11:00,
2013-01-12 15:22:00,61.0,48.0,29.81,WSW,254,5.0,6.0,63,0.00,,,0.00,,2013-01-12 13:22:00,
2013-01-12 15:32:00,63.0,48.0,29.82,WSW,246,3.0,5.0,58,0.00,,,0.00,,2013-01-12 13:32:00,
2013-01-12 15:42:00,63.0,48.0,29.82,WSW,246,3.0,5.0,58,0.00,,,0.00,,2013-01-12 13:42:00,
2013-01-12 15:52:00,67.0,50.0,29.83,WSW,254,2.0,3.0,54,0.00,,,0.00,,2013-01-12 13:52:00,
2013-01-12 16:02:00,64.0,45.0,29.83,West,273,7.0,15.0,50,0.00,,,0.00,,2013-01-12 14:02:00,
2013-01-12 16:12:00,64.0,45.0,29.83,West,273,7.0,15.0,50,0.00,,,0.00,,2013-01-12 14:12:00,
2013-01-12 16:22:00,64.0,45.0,29.84,WSW,251,3.0,6.0,51,0.00,,,0.00,,2013-01-12 14:22:00,
2013-01-12 16:32:00,61.0,45.0,29.85,North,9,1.0,3.0,56,0.00,,,0.00,,2013-01-12 14:32:00,
2013-01-12 16:42:00,61.0,45.0,29.85,North,9,1.0,3.0,56,0.00,,,0.00,,2013-01-12 14:42:00,
2013-01-12 16:53:00,60.0,44.0,29.85,WSW,256,2.0,6.0,56,0.00,,,0.00,,2013-01-12 14:53:00,
2013-01-12 17:03:00,59.0,44.0,29.86,WSW,253,3.0,4.0,58,0.00,,,0.00,,2013-01-12 15:03:00,
2013-01-12 17:12:00,59.0,46.0,29.87,West,261,2.0,6.0,62,0.00,,,0.00,,2013-01-12 15:12:00,
2013-01-12 17:22:00,59.0,46.0,29.87,West,261,2.0,6.0,62,0.00,,,0.00,,2013-01-12 15:22:00,
2013-01-12 17:33:00,58.0,46.0,29.86,West,266,4.0,9.0,64,0.00,,,0.00,,2013-01-12 15:33:00,
2013-01-12 17:42:00,58.0,46.0,29.86,West,266,4.0,9.0,64,0.00,,,0.00,,2013-01-12 15:42:00,
2013-01-12 17:52:00,58.0,46.0,29.87,WNW,282,2.0,5.0,65,0.00,,,0.00,,2013-01-12 15:52:00,
2013-01-12 18:02:00,57.0,46.0,29.88,WSW,256,1.0,3.0,67,0.00,,,0.00,,2013-01-12 16:02:00,
2013-01-12 18:12:00,57.0,46.0,29.88,WSW,256,1.0,3.0,67,0.00,,,0.00,,2013-01-12 16:12:00,
2013-01-12 18:22:00,57.0,46.0,29.88,WSW,250,1.0,2.0,67,0.00,,,0.00,,2013-01-12 16:22:00,
2013-01-12 18:32:00,56.0,45.0,29.89,WNW,299,3.0,6.0,67,0.00,,,0.00,,2013-01-12 16:32:00,
2013-01-12 18:42:00,57.0,46.0,29.90,West,267,2.0,6.0,66,0.00,,,0.00,,2013-01-12 16:42:00,
2013-01-12 18:52:00,57.0,46.0,29.90,West,267,2.0,6.0,66,0.00,,,0.00,,2013-01-12 16:52:00,
2013-01-12 19:02:00,57.0,46.0,29.91,WNW,297,3.0,6.0,66,0.00,,,0.00,,2013-01-12 17:02:00,
2013-01-12 19:12:00,57.0,46.0,29.91,WNW,297,3.0,6.0,66,0.00,,,0.00,,2013-01-12 17:12:00,
2013-01-12 19:22:00,57.0,46.0,29.92,WNW,301,5.0,10.0,66,0.00,,,0.00,,2013-01-12 17:22:00,
2013-01-12 19:32:00,56.0,45.0,29.91,South,177,1.0,4.0,67,0.00,,,0.00,,2013-01-12 17:32:00,
2013-01-12 19:42:00,56.0,45.0,29.91,South,177,1.0,4.0,67,0.00,,,0.00,,2013-01-12 17:42:00,
2013-01-12 19:53:00,57.0,46.0,29.91,West,277,3.0,6.0,66,0.00,,,0.00,,2013-01-12 17:53:00,
2013-01-12 20:02:00,56.0,45.0,29.93,WSW,253,2.0,7.0,66,0.00,,,0.00,,2013-01-12 18:02:00,
2013-01-12 20:12:00,56.0,45.0,29.93,WSW,253,2.0,7.0,66,0.00,,,0.00,,2013-01-12 18:12:00,
2013-01-12 20:22:00,56.0,45.0,29.92,West,263,2.0,5.0,66,0.00,,,0.00,,2013-01-12 18:22:00,
2013-01-12 20:33:00,56.0,45.0,29.93,WNW,297,2.0,5.0,66,0.00,,,0.00,,2013-01-12 18:33:00,
2013-01-12 20:42:00,56.0,45.0,29.93,WNW,297,2.0,5.0,66,0.00,,,0.00,,2013-01-12 18:42:00,
2013-01-12 20:52:00,55.0,44.0,29.94,NE,43,2.0,3.0,66,0.00,,,0.00,,2013-01-12 18:52:00,
2013-01-12 21:02:00,55.0,44.0,29.94,South,169,1.0,3.0,67,0.00,,,0.00,,2013-01-12 19:02:00,
2013-01-12 21:12:00,55.0,44.0,29.94,South,169,1.0,3.0,67,0.00,,,0.00,,2013-01-12 19:12:00,
2013-01-12 21:22:00,55.0,44.0,29.94,East,85,0.0,2.0,66,0.00,,,0.00,,2013-01-12 19:22:00,
2013-01-12 21:32:00,54.0,44.0,29.94,NE,42,2.0,3.0,68,0.00,,,0.00,,2013-01-12 19:32:00,
2013-01-12 21:42:00,54.0,44.0,29.94,NE,42,2.0,3.0,68,0.00,,,0.00,,2013-01-12 19:42:00,
2013-01-12 21:52:00,54.0,43.0,29.96,ENE,59,1.0,3.0,67,0.00,,,0.00,,2013-01-12 19:52:00,
2013-01-12 22:02:00,54.0,43.0,29.96,NW,305,1.0,4.0,66,0.00,,,0.00,,2013-01-12 20:02:00,
2013-01-12 22:12:00,54.0,43.0,29.96,East,84,1.0,2.0,67,0.00,,,0.00,,2013-01-12 20:12:00,
2013-01-12 22:22:00,54.0,43.0,29.96,East,84,1.0,2.0,67,0.00,,,0.00,,2013-01-12 20:22:00,
2013-01-12 22:32:00,54.0,44.0,29.97,East,90,0.0,1.0,68,0.00,,,0.00,,2013-01-12 20:32:00,
2013-01-12 22:42:00,54.0,44.0,29.97,East,90,0.0,1.0,68,0.00,,,0.00,,2013-01-12 20:42:00,
2013-01-12 22:52:00,53.0,43.0,29.98,East,90,0.0,0.0,69,0.00,,,0.00,,2013-01-12 20:52:00,
2013-01-12 23:02:00,52.0,43.0,29.98,North,0,0.0,0.0,72,0.00,,,0.00,,2013-01-12 21:02:00,
2013-01-12 23:12:00,52.0,43.0,29.99,North,0,0.0,0.0,72,0.00,,,0.00,,2013-01-12 21:12:00,
2013-01-12 23:22:00,52.0,43.0,29.99,North,0,0.0,0.0,72,0.00,,,0.00,,2013-01-12 21:22:00,
2013-01-12 23:32:00,52.0,43.0,29.98,East,88,0.0,0.0,72,0.00,,,0.00,,2013-01-12 21:32:00,
2013-01-12 23:42:00,52.0,43.0,29.98,East,88,0.0,0.0,72,0.00,,,0.00,,2013-01-12 21:42:00,
2013-01-12 23:52:00,52.0,43.0,29.99,North,1,0.0,0.0,70,0.00,,,0.00,,2013-01-12 21:52:00,